Kim, Colorado
Current Conditions -  °F | °C
As of 8:54 PM on Thursday 18 Dec 2014 (Local Time) from KTAD Reporting Station
Scattered Clouds Scattered Clouds  
Wind Chill: 26°   Ceiling: Unl
Heat Index: 34°   Visibility: 10mi
Dew Point: 26°   Wind: 10mph
Humidity: 73%   Direction: 310°NW
Pressure: 30.06"   Gusts: NA
Location:  37.25°N, 103.35°W
Report Text: KTAD 190354Z AUTO 31009KT 10SM FEW050 SCT080 01/M03 A3006 RMK AO2 SLP186 T00111033
Loading
Personal Weather Stations






























Interactive Weather Map New forecast layout! Learn more

10-Day Weather Forecast

Advertisements
Track Severe Weather on mobile